Time;durP1;ratioP1;P1;durP2;ratioP2;P2;SDS_P1;SDS_P2;PMS_P1;PMS_P2;Temp;Humidity;BMP_temperature;BMP_pressure;BME280_temperature;BME280_humidity;BME280_pressure;Samples;Min_cycle;Max_cycle;Signal;HPM_P1;HPM_P2
2021/08/07 00:00:23;;;;;;;3.67;2.78;;;;;;;;;;5075087;28;20477;-82
2021/08/07 00:02:49;;;;;;;4.25;3.40;;;;;;;;;;5094624;28;20040;-81
2021/08/07 00:05:15;;;;;;;5.15;2.95;;;;;;;;;;5093676;28;20021;-82
2021/08/07 00:07:41;;;;;;;3.40;3.00;;;;;;;;;;5093213;28;20060;-81
2021/08/07 00:10:08;;;;;;;3.67;2.65;;;;;;;;;;5092623;28;20054;-81
2021/08/07 00:12:35;;;;;;;2.60;2.40;;;;;;;;;;5074745;28;20366;-80
2021/08/07 00:15:01;;;;;;;2.92;2.40;;;;;;;;;;5071737;28;20039;-82
2021/08/07 00:17:27;;;;;;;2.65;2.22;;;;;;;;;;5094189;28;20020;-81
2021/08/07 00:19:53;;;;;;;3.08;2.40;;;;;;;;;;5108864;28;20108;-81
2021/08/07 00:22:19;;;;;;;2.60;2.40;;;;;;;;;;5099373;28;20032;-79
2021/08/07 00:24:45;;;;;;;2.60;2.40;;;;;;;;;;5089947;28;20020;-83
2021/08/07 00:27:14;;;;;;;3.70;2.53;;;;;;;;;;5091433;28;20028;-81
2021/08/07 00:29:40;;;;;;;4.38;2.33;;;;;;;;;;5090227;28;20031;-82
2021/08/07 00:32:07;;;;;;;3.63;2.78;;;;;;;;;;5092289;28;20028;-81
2021/08/07 00:34:33;;;;;;;4.10;2.80;;;;;;;;;;5090687;28;20086;-81
2021/08/07 00:37:04;;;;;;;3.22;2.58;;;;;;;;;;5091171;28;20052;-82
2021/08/07 00:39:30;;;;;;;3.80;2.72;;;;;;;;;;5091644;28;20024;-82
2021/08/07 00:41:56;;;;;;;2.97;2.45;;;;;;;;;;5089612;28;20044;-80
2021/08/07 00:44:22;;;;;;;2.65;2.45;;;;;;;;;;5091592;28;20076;-80
2021/08/07 00:46:48;;;;;;;2.47;2.20;;;;;;;;;;5100236;28;20068;-80
2021/08/07 00:49:16;;;;;;;3.22;2.22;;;;;;;;;;5100396;28;20036;-80
2021/08/07 00:51:42;;;;;;;2.60;2.20;;;;;;;;;;5091871;28;20084;-81
2021/08/07 00:54:08;;;;;;;3.50;2.30;;;;;;;;;;5093125;28;20128;-79
2021/08/07 00:56:34;;;;;;;3.00;2.17;;;;;;;;;;5096442;28;20039;-80
2021/08/07 00:59:00;;;;;;;2.67;2.13;;;;;;;;;;5096505;28;20029;-80
2021/08/07 01:01:29;;;;;;;2.40;1.95;;;;;;;;;;5095409;28;20020;-81
2021/08/07 01:03:57;;;;;;;2.67;2.22;;;;;;;;;;5093138;28;20114;-80
2021/08/07 01:06:35;;;;;;;2.47;2.28;;;;;;;;;;5096859;28;20084;-80
2021/08/07 01:09:08;;;;;;;3.08;2.30;;;;;;;;;;5095682;28;20060;-80
2021/08/07 01:11:48;;;;;;;3.00;2.47;;;;;;;;;;5094072;28;20469;-79
2021/08/07 01:14:15;;;;;;;3.17;2.75;;;;;;;;;;5080731;28;20029;-80
2021/08/07 01:16:43;;;;;;;4.57;2.80;;;;;;;;;;5082460;28;20029;-80
2021/08/07 01:19:17;;;;;;;2.25;2.05;;;;;;;;;;5097975;28;20029;-79
2021/08/07 01:21:46;;;;;;;2.08;1.88;;;;;;;;;;5091267;28;20084;-81
2021/08/07 01:24:19;;;;;;;2.65;1.95;;;;;;;;;;5080096;28;20040;-81
2021/08/07 01:27:00;;;;;;;2.35;1.95;;;;;;;;;;5070789;28;20063;-81
2021/08/07 01:29:27;;;;;;;2.70;2.38;;;;;;;;;;5070795;28;20128;-81
2021/08/07 01:31:54;;;;;;;2.47;2.10;;;;;;;;;;5076214;28;20041;-82
2021/08/07 01:34:20;;;;;;;2.70;2.25;;;;;;;;;;5085590;28;20084;-81
2021/08/07 01:36:47;;;;;;;2.35;1.90;;;;;;;;;;5093966;28;20020;-81
2021/08/07 01:39:13;;;;;;;1.90;1.77;;;;;;;;;;5091743;28;20088;-81
2021/08/07 01:41:39;;;;;;;1.70;1.60;;;;;;;;;;5090523;28;20099;-81
2021/08/07 01:44:06;;;;;;;1.90;1.80;;;;;;;;;;5085404;28;20047;-80
2021/08/07 01:46:33;;;;;;;3.20;2.30;;;;;;;;;;5076369;28;20038;-81
2021/08/07 01:49:14;;;;;;;6.97;3.85;;;;;;;;;;5101701;28;20071;-80
2021/08/07 01:51:54;;;;;;;2.35;2.15;;;;;;;;;;5109840;28;20016;-80
2021/08/07 01:54:24;;;;;;;2.60;2.33;;;;;;;;;;5105144;28;20024;-80
2021/08/07 01:56:53;;;;;;;2.17;1.92;;;;;;;;;;5089190;28;20019;-80
2021/08/07 01:59:20;;;;;;;2.13;1.98;;;;;;;;;;5090152;28;20119;-79
2021/08/07 02:01:47;;;;;;;2.88;1.95;;;;;;;;;;5089719;28;20422;-80
2021/08/07 02:04:15;;;;;;;1.70;1.60;;;;;;;;;;5089450;28;20008;-81
2021/08/07 02:06:41;;;;;;;2.30;2.10;;;;;;;;;;5089199;28;20021;-80
2021/08/07 02:09:07;;;;;;;2.28;2.08;;;;;;;;;;5089580;28;20036;-80
2021/08/07 02:11:34;;;;;;;4.68;2.28;;;;;;;;;;5087660;28;20495;-80
2021/08/07 02:14:01;;;;;;;2.53;2.10;;;;;;;;;;5090911;28;20017;-80
2021/08/07 02:16:27;;;;;;;3.75;2.50;;;;;;;;;;5094834;28;20043;-81
2021/08/07 02:18:54;;;;;;;2.03;1.83;;;;;;;;;;5101583;28;20044;-81
2021/08/07 02:21:20;;;;;;;2.70;2.13;;;;;;;;;;5092552;28;20028;-81
2021/08/07 02:23:47;;;;;;;2.30;2.10;;;;;;;;;;5096089;28;20088;-82
2021/08/07 02:26:13;;;;;;;2.85;1.90;;;;;;;;;;5083159;28;20036;-81
2021/08/07 02:28:40;;;;;;;3.03;1.83;;;;;;;;;;5070659;28;20029;-81
2021/08/07 02:31:06;;;;;;;2.13;1.70;;;;;;;;;;5071402;28;20055;-81
2021/08/07 02:33:35;;;;;;;2.20;1.98;;;;;;;;;;5070381;28;20032;-81
2021/08/07 02:36:01;;;;;;;2.00;1.85;;;;;;;;;;5079157;28;20029;-82
2021/08/07 02:38:30;;;;;;;2.13;1.92;;;;;;;;;;5090316;28;20040;-82
2021/08/07 02:40:58;;;;;;;2.65;2.10;;;;;;;;;;5089294;28;20020;-81
2021/08/07 02:43:25;;;;;;;2.20;2.10;;;;;;;;;;5091078;28;20078;-81
2021/08/07 02:45:51;;;;;;;1.80;1.70;;;;;;;;;;5090356;28;20073;-81
2021/08/07 02:48:18;;;;;;;2.42;1.83;;;;;;;;;;5093873;28;20028;-81
2021/08/07 02:50:45;;;;;;;1.80;1.70;;;;;;;;;;5111609;28;20028;-81
2021/08/07 02:53:11;;;;;;;1.75;1.65;;;;;;;;;;5112299;28;20061;-82
2021/08/07 02:55:38;;;;;;;1.73;1.63;;;;;;;;;;5110075;28;20036;-82
2021/08/07 02:58:04;;;;;;;2.38;1.75;;;;;;;;;;5090598;28;20059;-81
2021/08/07 03:00:30;;;;;;;3.60;2.00;;;;;;;;;;5089644;28;20024;-80
2021/08/07 03:02:56;;;;;;;2.38;1.80;;;;;;;;;;5088932;28;20028;-80
2021/08/07 03:05:23;;;;;;;2.58;1.80;;;;;;;;;;5090169;28;20095;-80
2021/08/07 03:07:49;;;;;;;2.88;2.08;;;;;;;;;;5094192;28;20020;-79
2021/08/07 03:10:18;;;;;;;2.10;1.85;;;;;;;;;;5092116;28;20123;-80
2021/08/07 03:12:46;;;;;;;2.55;1.85;;;;;;;;;;5091081;28;20097;-80
2021/08/07 03:15:13;;;;;;;2.20;1.60;;;;;;;;;;5090737;28;20092;-80
2021/08/07 03:17:43;;;;;;;2.15;1.92;;;;;;;;;;5102528;28;20102;-80
2021/08/07 03:20:10;;;;;;;2.25;2.05;;;;;;;;;;5107893;28;20079;-81
2021/08/07 03:22:36;;;;;;;1.92;1.80;;;;;;;;;;5109858;28;20519;-80
2021/08/07 03:25:02;;;;;;;1.98;1.70;;;;;;;;;;5109639;28;20108;-81
2021/08/07 03:27:28;;;;;;;1.80;1.70;;;;;;;;;;5103944;28;20024;-80
2021/08/07 03:29:54;;;;;;;1.92;1.80;;;;;;;;;;5087750;28;20033;-80
2021/08/07 03:32:20;;;;;;;2.05;1.85;;;;;;;;;;5087182;28;20041;-80
2021/08/07 03:34:46;;;;;;;2.17;1.98;;;;;;;;;;5088425;28;20028;-80
2021/08/07 03:37:12;;;;;;;2.00;1.90;;;;;;;;;;5088423;28;20024;-80
2021/08/07 03:39:39;;;;;;;2.15;1.95;;;;;;;;;;5086745;28;20032;-80
2021/08/07 03:42:06;;;;;;;5.38;1.92;;;;;;;;;;5088125;28;20055;-80
2021/08/07 03:44:34;;;;;;;2.47;1.90;;;;;;;;;;5088847;28;20032;-80
2021/08/07 03:47:00;;;;;;;2.05;1.85;;;;;;;;;;5097492;28;20028;-81
2021/08/07 03:49:26;;;;;;;1.90;1.70;;;;;;;;;;5107067;28;20055;-81
2021/08/07 03:51:52;;;;;;;1.65;1.55;;;;;;;;;;5105506;28;20032;-80
2021/08/07 03:54:18;;;;;;;4.07;1.95;;;;;;;;;;5098527;28;20020;-80
2021/08/07 03:56:44;;;;;;;3.28;1.90;;;;;;;;;;5100586;28;20099;-81
2021/08/07 03:59:11;;;;;;;3.85;1.90;;;;;;;;;;5093770;28;20016;-80
2021/08/07 04:01:37;;;;;;;2.38;1.50;;;;;;;;;;5082082;28;20024;-81
2021/08/07 04:04:04;;;;;;;2.42;1.95;;;;;;;;;;5084532;28;20037;-80
2021/08/07 04:06:30;;;;;;;1.65;1.42;;;;;;;;;;5084673;28;20032;-80
2021/08/07 04:08:56;;;;;;;1.88;1.75;;;;;;;;;;5084890;28;20102;-81
2021/08/07 04:11:22;;;;;;;2.00;1.80;;;;;;;;;;5084948;28;20040;-80
2021/08/07 04:13:48;;;;;;;2.70;1.58;;;;;;;;;;5085132;28;20055;-81
2021/08/07 04:16:15;;;;;;;2.10;1.83;;;;;;;;;;5089671;28;20498;-80
2021/08/07 04:18:41;;;;;;;1.77;1.63;;;;;;;;;;5106438;28;20038;-81
2021/08/07 04:21:07;;;;;;;2.53;1.70;;;;;;;;;;5087591;28;20063;-80
2021/08/07 04:23:33;;;;;;;1.63;1.52;;;;;;;;;;5085823;28;20347;-80
2021/08/07 04:26:01;;;;;;;2.35;1.80;;;;;;;;;;5087951;28;20044;-80
2021/08/07 04:28:28;;;;;;;2.10;1.90;;;;;;;;;;5085503;28;20028;-81
2021/08/07 04:30:54;;;;;;;1.88;1.77;;;;;;;;;;5086787;28;20013;-81
2021/08/07 04:33:20;;;;;;;5.85;2.00;;;;;;;;;;5086348;28;20477;-81
2021/08/07 04:35:46;;;;;;;1.80;1.70;;;;;;;;;;5088156;28;20031;-81
2021/08/07 04:38:12;;;;;;;1.70;1.60;;;;;;;;;;5088778;28;20031;-82
2021/08/07 04:40:40;;;;;;;1.83;1.50;;;;;;;;;;5089305;28;20040;-81
2021/08/07 04:43:09;;;;;;;2.70;1.90;;;;;;;;;;5092537;28;20051;-82
2021/08/07 04:45:35;;;;;;;1.90;1.75;;;;;;;;;;5092927;28;20044;-82
2021/08/07 04:48:06;;;;;;;2.30;1.90;;;;;;;;;;5109504;28;20056;-81
2021/08/07 04:50:33;;;;;;;2.22;1.63;;;;;;;;;;5086982;28;20048;-81
2021/08/07 04:52:59;;;;;;;1.83;1.73;;;;;;;;;;5071105;28;20029;-81
2021/08/07 04:55:26;;;;;;;2.05;1.70;;;;;;;;;;5071161;28;20097;-81
2021/08/07 04:57:52;;;;;;;1.60;1.50;;;;;;;;;;5072384;28;20025;-81
2021/08/07 05:00:19;;;;;;;1.70;1.48;;;;;;;;;;5072156;28;20025;-81
2021/08/07 05:02:48;;;;;;;1.63;1.52;;;;;;;;;;5072679;28;20013;-81
2021/08/07 05:05:14;;;;;;;1.52;1.42;;;;;;;;;;5071024;28;20092;-81
2021/08/07 05:07:40;;;;;;;1.45;1.33;;;;;;;;;;5071780;28;20472;-81
2021/08/07 05:10:08;;;;;;;1.88;1.67;;;;;;;;;;5072165;28;20033;-81
2021/08/07 05:12:34;;;;;;;1.30;1.17;;;;;;;;;;5085220;28;20096;-80
2021/08/07 05:15:00;;;;;;;1.55;1.35;;;;;;;;;;5092338;28;20025;-80
2021/08/07 05:17:27;;;;;;;1.27;1.20;;;;;;;;;;5096254;28;20016;-80
2021/08/07 05:19:53;;;;;;;1.40;1.27;;;;;;;;;;5093831;28;20028;-81
2021/08/07 05:22:20;;;;;;;1.50;1.40;;;;;;;;;;5081803;28;20025;-81
2021/08/07 05:24:46;;;;;;;1.95;1.83;;;;;;;;;;5075276;28;20013;-80
2021/08/07 05:27:12;;;;;;;1.40;1.30;;;;;;;;;;5074971;28;20044;-81
2021/08/07 05:29:38;;;;;;;1.63;1.33;;;;;;;;;;5071367;28;20039;-81
2021/08/07 05:32:04;;;;;;;1.23;1.23;;;;;;;;;;5072465;28;20079;-80
2021/08/07 05:34:30;;;;;;;1.50;1.40;;;;;;;;;;5072554;28;20074;-80
2021/08/07 05:36:56;;;;;;;2.13;1.70;;;;;;;;;;5070304;28;20029;-81
2021/08/07 05:39:22;;;;;;;3.10;1.45;;;;;;;;;;5071682;28;20097;-81
2021/08/07 05:41:49;;;;;;;1.70;1.60;;;;;;;;;;5071587;28;20036;-81
2021/08/07 05:44:15;;;;;;;3.38;1.90;;;;;;;;;;5070444;28;20025;-81
2021/08/07 05:46:41;;;;;;;2.20;2.00;;;;;;;;;;5085589;28;20027;-81
2021/08/07 05:49:07;;;;;;;2.78;1.88;;;;;;;;;;5092220;28;20140;-81
2021/08/07 05:51:35;;;;;;;2.42;1.67;;;;;;;;;;5090722;28;20457;-81
2021/08/07 05:54:04;;;;;;;2.72;1.85;;;;;;;;;;5074794;28;20253;-81
2021/08/07 05:56:31;;;;;;;2.45;2.22;;;;;;;;;;5069603;28;20342;-80
2021/08/07 05:58:57;;;;;;;2.83;2.05;;;;;;;;;;5070721;28;20044;-81
2021/08/07 06:01:23;;;;;;;2.40;2.17;;;;;;;;;;5070595;28;20037;-81
2021/08/07 06:03:49;;;;;;;1.88;1.63;;;;;;;;;;5070520;28;20040;-80
2021/08/07 06:06:16;;;;;;;1.88;1.77;;;;;;;;;;5069350;28;20033;-81
2021/08/07 06:08:42;;;;;;;2.83;2.05;;;;;;;;;;5071449;28;20033;-82
2021/08/07 06:11:08;;;;;;;2.42;1.40;;;;;;;;;;5070870;28;20021;-81
2021/08/07 06:13:34;;;;;;;1.95;1.80;;;;;;;;;;5071039;28;20080;-80
2021/08/07 06:16:00;;;;;;;2.00;1.80;;;;;;;;;;5084047;28;20028;-80
2021/08/07 06:18:26;;;;;;;2.17;1.85;;;;;;;;;;5096493;28;20035;-80
2021/08/07 06:20:53;;;;;;;1.60;1.50;;;;;;;;;;5090662;28;20024;-80
2021/08/07 06:23:19;;;;;;;2.47;1.80;;;;;;;;;;5091976;28;20021;-80
2021/08/07 06:25:45;;;;;;;3.90;2.00;;;;;;;;;;5092976;28;20097;-80
2021/08/07 06:28:11;;;;;;;1.90;1.75;;;;;;;;;;5094262;28;20028;-83
2021/08/07 06:30:45;;;;;;;4.30;2.05;;;;;;;;;;5091335;28;20042;-82
2021/08/07 06:33:11;;;;;;;1.60;1.50;;;;;;;;;;5092723;28;20031;-82
2021/08/07 06:35:37;;;;;;;1.80;1.52;;;;;;;;;;5090353;28;20443;-82
2021/08/07 06:38:03;;;;;;;1.70;1.60;;;;;;;;;;5089089;28;20028;-81
2021/08/07 06:40:29;;;;;;;1.73;1.63;;;;;;;;;;5089758;28;20530;-82
2021/08/07 06:42:56;;;;;;;2.63;1.92;;;;;;;;;;5089860;28;20028;-82
2021/08/07 06:45:22;;;;;;;2.25;1.77;;;;;;;;;;5076434;28;20037;-82
2021/08/07 06:47:48;;;;;;;2.47;1.83;;;;;;;;;;5096148;28;20035;-82
2021/08/07 06:50:14;;;;;;;1.73;1.50;;;;;;;;;;5108449;28;20032;-82
2021/08/07 06:52:40;;;;;;;3.22;1.48;;;;;;;;;;5110491;28;20020;-81
2021/08/07 06:55:06;;;;;;;1.38;1.27;;;;;;;;;;5101194;28;20080;-82
2021/08/07 06:57:32;;;;;;;2.75;1.65;;;;;;;;;;5089972;28;20448;-82
2021/08/07 07:00:03;;;;;;;3.72;1.70;;;;;;;;;;5092247;28;20096;-82
2021/08/07 07:02:29;;;;;;;2.17;1.63;;;;;;;;;;5092998;28;20032;-81
2021/08/07 07:04:55;;;;;;;4.03;1.70;;;;;;;;;;5093656;28;20020;-82
2021/08/07 07:07:21;;;;;;;1.77;1.45;;;;;;;;;;5093017;28;20031;-81
2021/08/07 07:09:47;;;;;;;2.05;1.40;;;;;;;;;;5084436;28;20028;-81
2021/08/07 07:12:13;;;;;;;3.47;1.52;;;;;;;;;;5082795;28;20036;-81
2021/08/07 07:14:40;;;;;;;1.52;1.42;;;;;;;;;;5084322;28;20020;-81
2021/08/07 07:17:06;;;;;;;2.88;1.60;;;;;;;;;;5094276;28;20044;-81
2021/08/07 07:19:32;;;;;;;2.75;1.40;;;;;;;;;;5090284;28;20021;-79
2021/08/07 07:21:58;;;;;;;1.65;1.40;;;;;;;;;;5083619;28;20073;-80
2021/08/07 07:24:25;;;;;;;1.85;1.70;;;;;;;;;;5086144;28;20397;-80
2021/08/07 07:26:51;;;;;;;2.03;1.40;;;;;;;;;;5071994;28;20036;-80
2021/08/07 07:29:17;;;;;;;2.00;1.67;;;;;;;;;;5063587;28;20029;-81
2021/08/07 07:31:43;;;;;;;1.65;1.55;;;;;;;;;;5066092;28;20269;-80
2021/08/07 07:34:09;;;;;;;2.03;1.50;;;;;;;;;;5066230;28;20028;-80
2021/08/07 07:36:35;;;;;;;1.60;1.42;;;;;;;;;;5073759;28;20136;-80
2021/08/07 07:39:01;;;;;;;3.00;1.58;;;;;;;;;;5085993;28;20035;-81
2021/08/07 07:41:27;;;;;;;1.77;1.48;;;;;;;;;;5087020;28;20040;-81
2021/08/07 07:43:53;;;;;;;2.38;2.10;;;;;;;;;;5088149;28;20033;-81
2021/08/07 07:46:19;;;;;;;3.85;1.40;;;;;;;;;;5090982;28;20028;-81
2021/08/07 07:48:45;;;;;;;1.50;1.40;;;;;;;;;;5092100;28;20017;-81
2021/08/07 07:51:11;;;;;;;1.55;1.42;;;;;;;;;;5089139;28;20025;-81
2021/08/07 07:53:37;;;;;;;1.27;1.27;;;;;;;;;;5088881;28;20029;-81
2021/08/07 07:56:04;;;;;;;2.15;1.60;;;;;;;;;;5088968;28;20020;-82
2021/08/07 07:58:30;;;;;;;1.40;1.30;;;;;;;;;;5088414;28;20039;-81
2021/08/07 08:00:56;;;;;;;2.15;1.55;;;;;;;;;;5087929;28;20009;-82
2021/08/07 08:03:22;;;;;;;3.22;1.35;;;;;;;;;;5088327;28;20092;-82
2021/08/07 08:05:48;;;;;;;2.33;1.60;;;;;;;;;;5088994;28;20035;-82
2021/08/07 08:08:14;;;;;;;1.60;1.50;;;;;;;;;;5089608;28;20039;-80
2021/08/07 08:10:41;;;;;;;1.52;1.42;;;;;;;;;;5088196;28;20073;-81
2021/08/07 08:13:09;;;;;;;3.25;1.83;;;;;;;;;;5090130;28;20041;-81
2021/08/07 08:15:37;;;;;;;1.95;1.45;;;;;;;;;;5090948;28;20031;-81
2021/08/07 08:18:04;;;;;;;2.28;1.90;;;;;;;;;;5091918;28;20016;-82
2021/08/07 08:20:30;;;;;;;3.35;1.80;;;;;;;;;;5091972;28;20025;-81
2021/08/07 08:22:56;;;;;;;2.35;1.52;;;;;;;;;;5092377;28;20112;-82
2021/08/07 08:25:24;;;;;;;2.67;1.50;;;;;;;;;;5097294;28;20417;-82
2021/08/07 08:27:51;;;;;;;2.22;1.30;;;;;;;;;;5094057;28;20029;-82
2021/08/07 08:30:17;;;;;;;2.45;1.45;;;;;;;;;;5091892;28;20108;-82
2021/08/07 08:32:47;;;;;;;2.47;1.80;;;;;;;;;;5092326;28;20036;-82
2021/08/07 08:35:13;;;;;;;2.15;1.20;;;;;;;;;;5092935;28;20038;-82
2021/08/07 08:37:39;;;;;;;2.92;1.40;;;;;;;;;;5092507;28;20032;-82
2021/08/07 08:40:06;;;;;;;2.00;1.35;;;;;;;;;;5090989;28;20077;-82
2021/08/07 08:42:32;;;;;;;1.38;1.27;;;;;;;;;;5092159;28;20032;-82
2021/08/07 08:44:58;;;;;;;1.67;1.42;;;;;;;;;;5092602;28;20032;-82
2021/08/07 08:47:25;;;;;;;2.47;1.27;;;;;;;;;;5100372;28;20024;-82
2021/08/07 08:49:52;;;;;;;1.35;1.25;;;;;;;;;;5107827;28;20040;-82
2021/08/07 08:52:18;;;;;;;1.58;1.48;;;;;;;;;;5114267;28;20024;-81
2021/08/07 08:54:44;;;;;;;1.58;1.38;;;;;;;;;;5111824;28;20023;-82
2021/08/07 08:57:10;;;;;;;1.10;1.10;;;;;;;;;;5112061;28;20078;-81
2021/08/07 08:59:36;;;;;;;1.35;1.25;;;;;;;;;;5099817;28;20032;-82
2021/08/07 09:02:02;;;;;;;1.88;1.20;;;;;;;;;;5092069;28;20108;-82
2021/08/07 09:04:28;;;;;;;2.40;1.40;;;;;;;;;;5091779;28;20103;-82
2021/08/07 09:06:54;;;;;;;1.30;1.17;;;;;;;;;;5091321;28;20135;-80
2021/08/07 09:09:34;;;;;;;2.53;1.30;;;;;;;;;;5089019;28;20043;-80
2021/08/07 09:12:00;;;;;;;1.83;1.42;;;;;;;;;;5091653;28;20051;-82
2021/08/07 09:14:28;;;;;;;1.80;1.30;;;;;;;;;;5091126;28;20016;-81
2021/08/07 09:19:26;;;;;;;;;;;;;;;;;;5101089;28;20040;-82
2021/08/07 09:22:10;;;;;;;1.48;1.38;;;;;;;;;;5094674;28;19923;-81
2021/08/07 09:24:54;;;;;;;1.85;1.15;;;;;;;;;;5092611;28;20055;-82
2021/08/07 09:27:29;;;;;;;2.42;1.20;;;;;;;;;;5092202;28;20031;-82
2021/08/07 09:29:55;;;;;;;2.25;1.42;;;;;;;;;;5090383;28;20088;-81
2021/08/07 09:32:21;;;;;;;2.45;1.48;;;;;;;;;;5091786;28;20037;-81
2021/08/07 09:35:20;;;;;;;1.50;1.40;;;;;;;;;;5090604;28;20024;-81
2021/08/07 09:37:46;;;;;;;1.33;1.20;;;;;;;;;;5072425;28;20031;-81
2021/08/07 09:40:13;;;;;;;6.07;1.38;;;;;;;;;;5095148;28;20051;-81
2021/08/07 09:42:50;;;;;;;2.35;1.55;;;;;;;;;;5090893;28;20028;-81
2021/08/07 09:45:16;;;;;;;2.58;1.48;;;;;;;;;;5091095;28;20024;-82
2021/08/07 09:47:56;;;;;;;2.70;1.60;;;;;;;;;;5101319;28;20162;-81
2021/08/07 09:50:23;;;;;;;2.60;1.30;;;;;;;;;;5089039;28;20050;-81
2021/08/07 09:52:49;;;;;;;1.80;1.40;;;;;;;;;;5089669;28;20076;-82
2021/08/07 09:55:16;;;;;;;1.23;1.13;;;;;;;;;;5092808;28;20100;-82
2021/08/07 09:57:42;;;;;;;2.00;1.60;;;;;;;;;;5092196;28;20048;-82
2021/08/07 10:00:09;;;;;;;1.73;1.60;;;;;;;;;;5089894;28;20030;-81
2021/08/07 10:02:36;;;;;;;1.80;1.60;;;;;;;;;;5071914;28;20033;-81
2021/08/07 10:05:08;;;;;;;5.05;1.80;;;;;;;;;;5071712;28;20117;-82
2021/08/07 10:07:35;;;;;;;1.55;1.42;;;;;;;;;;5071877;28;20029;-81
2021/08/07 10:10:01;;;;;;;2.47;1.40;;;;;;;;;;5072255;28;20036;-80
2021/08/07 10:12:27;;;;;;;1.40;1.30;;;;;;;;;;5075332;28;20021;-81
2021/08/07 10:14:53;;;;;;;2.28;1.08;;;;;;;;;;5075521;28;20095;-81
2021/08/07 10:17:23;;;;;;;1.17;1.17;;;;;;;;;;5096835;28;20019;-82
2021/08/07 10:19:50;;;;;;;1.38;1.27;;;;;;;;;;5107260;28;20046;-81
2021/08/07 10:22:16;;;;;;;1.10;1.10;;;;;;;;;;5095238;28;20043;-81
2021/08/07 10:24:45;;;;;;;1.63;1.52;;;;;;;;;;5095421;28;20039;-82
2021/08/07 10:27:12;;;;;;;2.40;1.80;;;;;;;;;;5094712;28;20040;-81
2021/08/07 10:29:40;;;;;;;1.48;1.38;;;;;;;;;;5093367;28;20025;-80
2021/08/07 10:32:06;;;;;;;2.75;1.42;;;;;;;;;;5094510;28;20029;-81
2021/08/07 10:34:33;;;;;;;1.48;1.33;;;;;;;;;;5077456;28;20497;-79
2021/08/07 10:36:59;;;;;;;1.80;1.67;;;;;;;;;;5076836;28;20358;-80
2021/08/07 10:39:25;;;;;;;1.70;1.42;;;;;;;;;;5060947;28;20048;-80
2021/08/07 10:41:52;;;;;;;1.58;1.25;;;;;;;;;;5057607;28;20036;-80
2021/08/07 10:44:21;;;;;;;1.67;1.40;;;;;;;;;;5056764;28;20159;-82
2021/08/07 10:46:55;;;;;;;1.58;1.48;;;;;;;;;;5073918;28;20486;-79
2021/08/07 10:49:32;;;;;;;2.85;1.65;;;;;;;;;;5084447;28;20104;-80
2021/08/07 10:51:58;;;;;;;3.20;1.67;;;;;;;;;;5076958;28;20076;-80
2021/08/07 10:54:29;;;;;;;1.45;1.45;;;;;;;;;;5077128;28;20074;-81
2021/08/07 10:56:55;;;;;;;1.60;1.37;;;;;;;;;;5075971;28;20045;-81
2021/08/07 10:59:23;;;;;;;1.60;1.50;;;;;;;;;;5074587;28;20032;-81
2021/08/07 11:01:53;;;;;;;1.98;1.38;;;;;;;;;;5076757;28;20024;-81
2021/08/07 11:04:21;;;;;;;1.63;1.53;;;;;;;;;;5076980;28;20098;-81
2021/08/07 11:06:49;;;;;;;1.50;1.40;;;;;;;;;;5075089;28;20028;-82
2021/08/07 11:09:16;;;;;;;1.55;1.40;;;;;;;;;;5074101;28;20028;-79
2021/08/07 11:11:43;;;;;;;1.60;1.50;;;;;;;;;;5075713;28;20032;-82
2021/08/07 11:14:24;;;;;;;1.50;1.35;;;;;;;;;;5074424;28;20044;-81
2021/08/07 11:17:06;;;;;;;2.30;1.77;;;;;;;;;;5085809;28;20429;-80
2021/08/07 11:19:44;;;;;;;2.97;1.58;;;;;;;;;;5090794;28;20033;-82
2021/08/07 11:22:10;;;;;;;2.28;1.48;;;;;;;;;;5074148;28;20392;-80
2021/08/07 11:24:48;;;;;;;1.50;1.40;;;;;;;;;;5074689;28;20064;-79
2021/08/07 11:27:14;;;;;;;1.35;1.33;;;;;;;;;;5075528;28;20040;-82
2021/08/07 11:29:59;;;;;;;1.60;1.48;;;;;;;;;;5074238;28;20314;-80
2021/08/07 11:32:25;;;;;;;1.98;1.67;;;;;;;;;;5076323;28;20118;-81
2021/08/07 11:34:51;;;;;;;1.77;1.67;;;;;;;;;;5074172;28;20036;-81
2021/08/07 11:37:20;;;;;;;2.15;1.50;;;;;;;;;;5073802;28;20072;-80
2021/08/07 11:40:09;;;;;;;1.58;1.38;;;;;;;;;;5072924;28;20095;-81
2021/08/07 11:42:40;;;;;;;1.55;1.45;;;;;;;;;;5071176;28;20103;-81
2021/08/07 11:45:07;;;;;;;1.80;1.60;;;;;;;;;;5072383;28;20029;-80
2021/08/07 11:47:37;;;;;;;2.05;1.75;;;;;;;;;;5089948;28;20095;-81
2021/08/07 11:50:06;;;;;;;4.45;1.30;;;;;;;;;;5075765;28;20021;-81
2021/08/07 11:52:32;;;;;;;1.85;1.75;;;;;;;;;;5054653;28;20017;-80
2021/08/07 11:54:58;;;;;;;2.53;1.80;;;;;;;;;;5053730;28;20061;-79
2021/08/07 11:57:25;;;;;;;1.60;1.50;;;;;;;;;;5054620;28;20108;-79
2021/08/07 11:59:51;;;;;;;2.03;1.83;;;;;;;;;;5056031;28;20026;-79
2021/08/07 12:02:17;;;;;;;2.00;1.80;;;;;;;;;;5056567;28;20033;-79
2021/08/07 12:04:44;;;;;;;1.75;1.65;;;;;;;;;;5057073;28;20029;-79
2021/08/07 12:07:10;;;;;;;2.10;1.90;;;;;;;;;;5057632;28;20028;-80
2021/08/07 12:09:36;;;;;;;2.28;1.77;;;;;;;;;;5057787;28;20021;-79
2021/08/07 12:12:03;;;;;;;1.58;1.48;;;;;;;;;;5058741;28;20032;-79
2021/08/07 12:14:29;;;;;;;1.58;1.50;;;;;;;;;;5057598;28;20490;-79
2021/08/07 12:17:05;;;;;;;1.67;1.58;;;;;;;;;;5075988;28;20020;-79
2021/08/07 12:19:31;;;;;;;3.05;1.70;;;;;;;;;;5089389;28;20072;-79
2021/08/07 12:22:04;;;;;;;1.92;1.55;;;;;;;;;;5087363;28;20021;-83
2021/08/07 12:24:30;;;;;;;1.73;1.63;;;;;;;;;;5080951;28;20111;-80
2021/08/07 12:26:57;;;;;;;1.58;1.48;;;;;;;;;;5080662;28;20021;-81
2021/08/07 12:29:26;;;;;;;1.63;1.50;;;;;;;;;;5080886;28;20051;-80
2021/08/07 12:31:53;;;;;;;3.45;1.77;;;;;;;;;;5079821;28;20016;-79
2021/08/07 12:34:21;;;;;;;2.35;1.60;;;;;;;;;;5074936;28;20033;-80
2021/08/07 12:37:05;;;;;;;2.00;1.40;;;;;;;;;;5082384;28;20028;-81
2021/08/07 12:39:40;;;;;;;3.45;1.70;;;;;;;;;;5082062;28;20353;-81
2021/08/07 12:42:07;;;;;;;3.08;1.45;;;;;;;;;;5080334;28;20032;-83
2021/08/07 12:44:34;;;;;;;3.53;1.83;;;;;;;;;;5081182;28;20024;-80
2021/08/07 12:47:01;;;;;;;1.83;1.73;;;;;;;;;;5086032;28;20031;-81
2021/08/07 12:49:34;;;;;;;2.33;1.65;;;;;;;;;;5088110;28;20032;-79
2021/08/07 12:52:01;;;;;;;2.35;2.15;;;;;;;;;;5095313;28;20020;-79
2021/08/07 12:54:27;;;;;;;1.75;1.65;;;;;;;;;;5076653;28;20096;-79
2021/08/07 12:56:53;;;;;;;1.80;1.70;;;;;;;;;;5074235;28;20031;-79
2021/08/07 12:59:20;;;;;;;1.45;1.35;;;;;;;;;;5074634;28;20029;-79
2021/08/07 13:02:07;;;;;;;2.40;1.88;;;;;;;;;;5075714;28;20029;-79
2021/08/07 13:04:47;;;;;;;3.05;1.77;;;;;;;;;;5063795;28;20037;-82
2021/08/07 13:07:14;;;;;;;1.70;1.60;;;;;;;;;;5068925;28;20036;-82
2021/08/07 13:09:40;;;;;;;1.95;1.55;;;;;;;;;;5070896;28;20090;-80
2021/08/07 13:12:08;;;;;;;3.38;1.60;;;;;;;;;;5070864;28;20085;-80
2021/08/07 13:14:35;;;;;;;2.03;1.83;;;;;;;;;;5070959;28;20186;-79
2021/08/07 13:17:01;;;;;;;1.85;1.45;;;;;;;;;;5077858;28;20028;-81
2021/08/07 13:19:30;;;;;;;2.30;1.52;;;;;;;;;;5088470;28;20103;-80
2021/08/07 13:22:08;;;;;;;2.15;1.98;;;;;;;;;;5077781;28;20025;-83
2021/08/07 13:24:35;;;;;;;1.95;1.85;;;;;;;;;;5063389;28;20025;-82
2021/08/07 13:27:03;;;;;;;2.70;1.80;;;;;;;;;;5059231;28;20489;-80
2021/08/07 13:29:29;;;;;;;2.30;1.70;;;;;;;;;;5058796;28;20586;-81
2021/08/07 13:31:56;;;;;;;4.32;1.98;;;;;;;;;;5060939;28;20025;-83
2021/08/07 13:34:26;;;;;;;2.20;1.70;;;;;;;;;;5069331;28;20029;-82
2021/08/07 13:36:53;;;;;;;1.70;1.60;;;;;;;;;;5081122;28;20035;-81
2021/08/07 13:39:19;;;;;;;4.50;1.90;;;;;;;;;;5078574;28;20055;-81
2021/08/07 13:41:45;;;;;;;2.58;2.10;;;;;;;;;;5079307;28;20032;-82
2021/08/07 13:44:11;;;;;;;1.92;1.65;;;;;;;;;;5072715;28;20029;-81
2021/08/07 13:46:38;;;;;;;3.50;2.13;;;;;;;;;;5071032;28;20034;-81
2021/08/07 13:49:05;;;;;;;1.67;1.58;;;;;;;;;;5079351;28;20039;-80
2021/08/07 13:51:31;;;;;;;2.22;2.03;;;;;;;;;;5081308;28;20021;-82
2021/08/07 13:53:57;;;;;;;1.60;1.50;;;;;;;;;;5077754;28;20028;-81
2021/08/07 13:56:23;;;;;;;1.88;1.77;;;;;;;;;;5078964;28;20021;-83
2021/08/07 13:58:49;;;;;;;1.85;1.75;;;;;;;;;;5078556;28;20031;-82
2021/08/07 14:01:15;;;;;;;1.50;1.40;;;;;;;;;;5078974;28;20020;-82
2021/08/07 14:03:42;;;;;;;1.80;1.70;;;;;;;;;;5075752;28;20032;-79
2021/08/07 14:06:08;;;;;;;1.77;1.63;;;;;;;;;;5061535;28;20029;-81
2021/08/07 14:08:34;;;;;;;2.58;1.77;;;;;;;;;;5056456;28;20182;-80
2021/08/07 14:11:00;;;;;;;2.10;1.88;;;;;;;;;;5056484;28;20025;-80
2021/08/07 14:13:26;;;;;;;3.08;1.70;;;;;;;;;;5056840;28;20021;-81
2021/08/07 14:15:52;;;;;;;2.67;2.13;;;;;;;;;;5057925;28;20055;-81
2021/08/07 14:18:18;;;;;;;2.65;1.92;;;;;;;;;;5081932;28;20027;-80
2021/08/07 14:20:44;;;;;;;1.85;1.55;;;;;;;;;;5078027;28;20029;-81
2021/08/07 14:23:10;;;;;;;2.10;1.90;;;;;;;;;;5076893;28;20104;-80
2021/08/07 14:25:37;;;;;;;3.03;1.83;;;;;;;;;;5072856;28;20029;-81
2021/08/07 14:28:03;;;;;;;3.10;2.03;;;;;;;;;;5057783;28;20394;-80
2021/08/07 14:30:29;;;;;;;2.63;2.08;;;;;;;;;;5057869;28;20048;-82
2021/08/07 14:32:55;;;;;;;1.80;1.33;;;;;;;;;;5055720;28;20036;-82
2021/08/07 14:35:22;;;;;;;2.50;1.88;;;;;;;;;;5056959;28;20098;-81
2021/08/07 14:37:48;;;;;;;2.63;1.65;;;;;;;;;;5077419;28;20029;-81
2021/08/07 14:40:15;;;;;;;1.70;1.60;;;;;;;;;;5077083;28;20035;-80
2021/08/07 14:42:41;;;;;;;2.92;1.70;;;;;;;;;;5075299;28;20036;-78
2021/08/07 14:45:08;;;;;;;3.13;2.00;;;;;;;;;;5077357;28;20043;-80
2021/08/07 14:47:34;;;;;;;3.25;1.60;;;;;;;;;;5084540;28;20509;-82